sensor_id;sensor_type;location;lat;lon;timestamp;pressure;altitude;pressure_sealevel;temperature;humidity
19672;BME280;9983;51.114;13.788;2023-07-29T00:04:52;98747.94;;;22.58;100.00
19672;BME280;9983;51.114;13.788;2023-07-29T00:09:53;98746.31;;;22.57;100.00
19672;BME280;9983;51.114;13.788;2023-07-29T00:14:53;98753.34;;;22.43;100.00
19672;BME280;9983;51.114;13.788;2023-07-29T00:19:53;98745.19;;;22.53;100.00
19672;BME280;9983;51.114;13.788;2023-07-29T00:24:54;98739.69;;;22.33;100.00
19672;BME280;9983;51.114;13.788;2023-07-29T00:30:00;98744.63;;;22.46;100.00
19672;BME280;9983;51.114;13.788;2023-07-29T00:35:00;98742.72;;;22.52;100.00
19672;BME280;9983;51.114;13.788;2023-07-29T00:40:01;98743.00;;;22.55;100.00
19672;BME280;9983;51.114;13.788;2023-07-29T00:45:01;98731.25;;;22.55;100.00
19672;BME280;9983;51.114;13.788;2023-07-29T00:50:01;98726.69;;;22.76;100.00
19672;BME280;9983;51.114;13.788;2023-07-29T00:55:03;98732.38;;;22.59;100.00
19672;BME280;9983;51.114;13.788;2023-07-29T01:00:04;98728.78;;;22.33;100.00
19672;BME280;9983;51.114;13.788;2023-07-29T01:05:05;98734.81;;;22.50;100.00
19672;BME280;9983;51.114;13.788;2023-07-29T01:10:36;98727.72;;;22.49;100.00
19672;BME280;9983;51.114;13.788;2023-07-29T01:16:00;98715.16;;;22.58;100.00
19672;BME280;9983;51.114;13.788;2023-07-29T01:21:08;98721.69;;;22.52;100.00
19672;BME280;9983;51.114;13.788;2023-07-29T01:26:09;98717.13;;;21.95;100.00
19672;BME280;9983;51.114;13.788;2023-07-29T01:36:19;98706.06;;;22.17;100.00
19672;BME280;9983;51.114;13.788;2023-07-29T01:41:21;98704.56;;;21.94;100.00
19672;BME280;9983;51.114;13.788;2023-07-29T01:46:22;98698.69;;;22.23;100.00
19672;BME280;9983;51.114;13.788;2023-07-29T01:51:23;98701.31;;;21.92;100.00
19672;BME280;9983;51.114;13.788;2023-07-29T01:56:23;98705.47;;;22.00;100.00
19672;BME280;9983;51.114;13.788;2023-07-29T02:01:23;98707.28;;;21.89;100.00
19672;BME280;9983;51.114;13.788;2023-07-29T02:06:23;98715.22;;;21.44;100.00
19672;BME280;9983;51.114;13.788;2023-07-29T02:11:24;98706.44;;;21.32;100.00
19672;BME280;9983;51.114;13.788;2023-07-29T02:16:27;98709.66;;;21.66;100.00
19672;BME280;9983;51.114;13.788;2023-07-29T02:21:27;98713.59;;;21.06;100.00
19672;BME280;9983;51.114;13.788;2023-07-29T02:26:28;98708.06;;;20.64;100.00
19672;BME280;9983;51.114;13.788;2023-07-29T02:31:28;98713.72;;;21.21;100.00
19672;BME280;9983;51.114;13.788;2023-07-29T02:36:28;98709.28;;;20.78;100.00
19672;BME280;9983;51.114;13.788;2023-07-29T02:41:29;98713.66;;;21.16;100.00
19672;BME280;9983;51.114;13.788;2023-07-29T02:46:29;98717.44;;;20.78;100.00
19672;BME280;9983;51.114;13.788;2023-07-29T02:51:30;98731.28;;;21.03;100.00
19672;BME280;9983;51.114;13.788;2023-07-29T02:56:30;98729.97;;;20.79;100.00
19672;BME280;9983;51.114;13.788;2023-07-29T03:01:31;98740.53;;;21.02;100.00
19672;BME280;9983;51.114;13.788;2023-07-29T03:06:31;98748.16;;;21.00;100.00
19672;BME280;9983;51.114;13.788;2023-07-29T03:11:31;98748.75;;;21.07;100.00
19672;BME280;9983;51.114;13.788;2023-07-29T03:16:32;98748.31;;;20.89;100.00
19672;BME280;9983;51.114;13.788;2023-07-29T03:21:32;98743.41;;;21.17;100.00
19672;BME280;9983;51.114;13.788;2023-07-29T03:26:32;98748.91;;;20.91;100.00
19672;BME280;9983;51.114;13.788;2023-07-29T03:31:33;98744.91;;;21.35;100.00
19672;BME280;9983;51.114;13.788;2023-07-29T03:36:33;98738.47;;;21.14;100.00
19672;BME280;9983;51.114;13.788;2023-07-29T03:41:33;98739.28;;;21.52;100.00
19672;BME280;9983;51.114;13.788;2023-07-29T03:46:34;98735.88;;;21.30;100.00
19672;BME280;9983;51.114;13.788;2023-07-29T03:51:34;98726.19;;;21.54;100.00
19672;BME280;9983;51.114;13.788;2023-07-29T03:56:34;98719.66;;;21.55;100.00
19672;BME280;9983;51.114;13.788;2023-07-29T04:01:35;98730.38;;;21.67;100.00
19672;BME280;9983;51.114;13.788;2023-07-29T04:06:35;98726.13;;;21.44;100.00
19672;BME280;9983;51.114;13.788;2023-07-29T04:11:36;98718.72;;;21.86;100.00
19672;BME280;9983;51.114;13.788;2023-07-29T04:16:36;98724.63;;;21.63;100.00
19672;BME280;9983;51.114;13.788;2023-07-29T04:21:36;98745.63;;;21.63;100.00
19672;BME280;9983;51.114;13.788;2023-07-29T04:26:37;98734.69;;;22.10;100.00
19672;BME280;9983;51.114;13.788;2023-07-29T04:31:39;98723.94;;;21.93;100.00
19672;BME280;9983;51.114;13.788;2023-07-29T04:36:39;98727.63;;;22.19;100.00
19672;BME280;9983;51.114;13.788;2023-07-29T04:41:40;98724.84;;;22.04;100.00
19672;BME280;9983;51.114;13.788;2023-07-29T04:46:40;98732.25;;;22.18;100.00
19672;BME280;9983;51.114;13.788;2023-07-29T04:51:40;98723.78;;;22.20;100.00
19672;BME280;9983;51.114;13.788;2023-07-29T04:56:41;98724.66;;;22.30;100.00
19672;BME280;9983;51.114;13.788;2023-07-29T05:01:41;98724.34;;;22.17;100.00
19672;BME280;9983;51.114;13.788;2023-07-29T05:06:43;98722.50;;;22.43;100.00
19672;BME280;9983;51.114;13.788;2023-07-29T05:11:44;98717.22;;;22.06;100.00
19672;BME280;9983;51.114;13.788;2023-07-29T05:16:47;98720.03;;;22.51;100.00
19672;BME280;9983;51.114;13.788;2023-07-29T05:21:48;98720.09;;;22.71;100.00
19672;BME280;9983;51.114;13.788;2023-07-29T05:26:48;98715.19;;;22.79;100.00
19672;BME280;9983;51.114;13.788;2023-07-29T05:31:48;98717.41;;;23.07;100.00
19672;BME280;9983;51.114;13.788;2023-07-29T05:36:48;98705.06;;;23.30;100.00
19672;BME280;9983;51.114;13.788;2023-07-29T05:41:49;98703.41;;;23.59;100.00
19672;BME280;9983;51.114;13.788;2023-07-29T05:46:49;98701.41;;;23.85;100.00
19672;BME280;9983;51.114;13.788;2023-07-29T05:51:49;98701.34;;;23.95;100.00
19672;BME280;9983;51.114;13.788;2023-07-29T05:56:51;98695.78;;;24.15;98.39
19672;BME280;9983;51.114;13.788;2023-07-29T06:01:52;98685.50;;;23.92;98.55
19672;BME280;9983;51.114;13.788;2023-07-29T06:06:52;98677.75;;;24.04;97.08
19672;BME280;9983;51.114;13.788;2023-07-29T06:11:52;98685.38;;;24.12;95.06
19672;BME280;9983;51.114;13.788;2023-07-29T06:16:53;98680.69;;;23.59;98.27
19672;BME280;9983;51.114;13.788;2023-07-29T06:21:55;98676.34;;;23.27;99.09
19672;BME280;9983;51.114;13.788;2023-07-29T06:26:55;98682.41;;;22.79;100.00
19672;BME280;9983;51.114;13.788;2023-07-29T06:31:56;98691.47;;;23.99;95.08
19672;BME280;9983;51.114;13.788;2023-07-29T06:36:56;98690.78;;;23.68;96.35
19672;BME280;9983;51.114;13.788;2023-07-29T06:41:56;98687.56;;;24.10;94.72
19672;BME280;9983;51.114;13.788;2023-07-29T06:46:57;98690.88;;;24.02;93.95
19672;BME280;9983;51.114;13.788;2023-07-29T06:51:58;98700.78;;;23.98;91.96
19672;BME280;9983;51.114;13.788;2023-07-29T06:56:58;98699.59;;;24.14;89.67
19672;BME280;9983;51.114;13.788;2023-07-29T07:01:59;98696.69;;;24.50;87.76
19672;BME280;9983;51.114;13.788;2023-07-29T07:07:00;98702.59;;;24.67;87.96
19672;BME280;9983;51.114;13.788;2023-07-29T07:12:00;98695.63;;;25.19;85.37
19672;BME280;9983;51.114;13.788;2023-07-29T07:17:00;98687.88;;;24.58;84.19
19672;BME280;9983;51.114;13.788;2023-07-29T07:22:01;98687.69;;;24.78;81.79
19672;BME280;9983;51.114;13.788;2023-07-29T07:27:02;98678.84;;;24.86;79.81
19672;BME280;9983;51.114;13.788;2023-07-29T07:32:02;98667.91;;;25.44;77.59
19672;BME280;9983;51.114;13.788;2023-07-29T07:37:02;98660.19;;;24.88;77.86
19672;BME280;9983;51.114;13.788;2023-07-29T07:42:04;98649.03;;;25.14;75.50
19672;BME280;9983;51.114;13.788;2023-07-29T07:47:05;98642.53;;;25.05;73.25
19672;BME280;9983;51.114;13.788;2023-07-29T07:52:05;98637.31;;;25.32;72.62
19672;BME280;9983;51.114;13.788;2023-07-29T07:57:06;98637.16;;;24.94;74.24
19672;BME280;9983;51.114;13.788;2023-07-29T08:02:06;98632.16;;;25.02;71.72
19672;BME280;9983;51.114;13.788;2023-07-29T08:07:06;98628.44;;;25.40;68.86
19672;BME280;9983;51.114;13.788;2023-07-29T08:12:07;98614.94;;;25.20;68.63
19672;BME280;9983;51.114;13.788;2023-07-29T08:17:07;98607.66;;;25.82;67.64
19672;BME280;9983;51.114;13.788;2023-07-29T08:22:07;98622.72;;;26.22;66.89
19672;BME280;9983;51.114;13.788;2023-07-29T08:27:07;98609.31;;;26.71;61.80
19672;BME280;9983;51.114;13.788;2023-07-29T08:32:08;98606.78;;;26.05;61.88
19672;BME280;9983;51.114;13.788;2023-07-29T08:37:09;98607.06;;;25.85;63.08
19672;BME280;9983;51.114;13.788;2023-07-29T08:42:11;98618.31;;;26.26;63.00
19672;BME280;9983;51.114;13.788;2023-07-29T08:47:12;98614.63;;;26.68;61.75
19672;BME280;9983;51.114;13.788;2023-07-29T08:52:16;98608.97;;;26.78;58.74
19672;BME280;9983;51.114;13.788;2023-07-29T08:57:17;98628.03;;;26.18;61.83
19672;BME280;9983;51.114;13.788;2023-07-29T09:02:17;98624.09;;;26.43;62.33
19672;BME280;9983;51.114;13.788;2023-07-29T09:07:18;98627.53;;;26.35;59.01
19672;BME280;9983;51.114;13.788;2023-07-29T09:12:19;98622.66;;;26.08;60.29
19672;BME280;9983;51.114;13.788;2023-07-29T09:17:20;98624.88;;;26.06;61.60
19672;BME280;9983;51.114;13.788;2023-07-29T09:22:22;98634.28;;;26.42;59.98
19672;BME280;9983;51.114;13.788;2023-07-29T09:27:26;98630.97;;;26.78;58.67
19672;BME280;9983;51.114;13.788;2023-07-29T09:32:27;98607.63;;;27.22;59.16
19672;BME280;9983;51.114;13.788;2023-07-29T09:37:27;98609.72;;;27.57;59.00
19672;BME280;9983;51.114;13.788;2023-07-29T09:42:27;98620.88;;;27.47;59.00
19672;BME280;9983;51.114;13.788;2023-07-29T09:47:28;98611.28;;;27.99;56.80
19672;BME280;9983;51.114;13.788;2023-07-29T09:52:29;98606.63;;;27.17;58.04
19672;BME280;9983;51.114;13.788;2023-07-29T09:57:29;98610.25;;;27.13;60.77
19672;BME280;9983;51.114;13.788;2023-07-29T10:02:30;98606.03;;;27.75;56.48
19672;BME280;9983;51.114;13.788;2023-07-29T10:07:31;98605.56;;;27.13;56.49
19672;BME280;9983;51.114;13.788;2023-07-29T10:12:34;98593.38;;;27.19;58.78
19672;BME280;9983;51.114;13.788;2023-07-29T10:17:36;98589.94;;;26.63;60.06
19672;BME280;9983;51.114;13.788;2023-07-29T10:22:41;98607.19;;;25.75;81.60
19672;BME280;9983;51.114;13.788;2023-07-29T10:27:53;98599.72;;;25.56;86.01
19672;BME280;9983;51.114;13.788;2023-07-29T10:32:58;98611.81;;;25.08;100.00
19672;BME280;9983;51.114;13.788;2023-07-29T10:37:59;98597.03;;;25.51;100.00
19672;BME280;9983;51.114;13.788;2023-07-29T10:43:09;98603.81;;;25.83;100.00
19672;BME280;9983;51.114;13.788;2023-07-29T10:53:33;98587.78;;;25.90;100.00
19672;BME280;9983;51.114;13.788;2023-07-29T10:58:34;98580.03;;;26.80;100.00
19672;BME280;9983;51.114;13.788;2023-07-29T11:03:35;98583.00;;;26.52;94.22
19672;BME280;9983;51.114;13.788;2023-07-29T11:08:35;98581.53;;;26.40;100.00
19672;BME280;9983;51.114;13.788;2023-07-29T11:13:37;98579.16;;;26.15;91.27
19672;BME280;9983;51.114;13.788;2023-07-29T11:18:37;98574.56;;;26.29;97.45
19672;BME280;9983;51.114;13.788;2023-07-29T11:23:38;98564.72;;;26.61;93.23
19672;BME280;9983;51.114;13.788;2023-07-29T11:28:38;98558.81;;;26.16;92.17
19672;BME280;9983;51.114;13.788;2023-07-29T11:33:40;98559.44;;;25.76;90.79
19672;BME280;9983;51.114;13.788;2023-07-29T11:38:40;98574.34;;;25.88;92.76
19672;BME280;9983;51.114;13.788;2023-07-29T11:43:40;98573.59;;;25.16;100.00
19672;BME280;9983;51.114;13.788;2023-07-29T11:48:44;98573.44;;;25.03;100.00
19672;BME280;9983;51.114;13.788;2023-07-29T11:53:44;98562.97;;;25.10;100.00
19672;BME280;9983;51.114;13.788;2023-07-29T11:58:44;98555.25;;;24.54;100.00
19672;BME280;9983;51.114;13.788;2023-07-29T12:03:45;98562.97;;;24.52;100.00
19672;BME280;9983;51.114;13.788;2023-07-29T12:08:46;98556.63;;;24.85;100.00
19672;BME280;9983;51.114;13.788;2023-07-29T12:13:46;98558.94;;;24.73;100.00
19672;BME280;9983;51.114;13.788;2023-07-29T12:18:47;98547.22;;;24.68;100.00
19672;BME280;9983;51.114;13.788;2023-07-29T12:23:49;98548.84;;;25.21;100.00
19672;BME280;9983;51.114;13.788;2023-07-29T12:28:51;98553.59;;;25.58;100.00
19672;BME280;9983;51.114;13.788;2023-07-29T12:33:56;98536.75;;;26.40;100.00
19672;BME280;9983;51.114;13.788;2023-07-29T12:38:59;98521.50;;;26.48;100.00
19672;BME280;9983;51.114;13.788;2023-07-29T12:43:59;98522.19;;;26.21;93.13
19672;BME280;9983;51.114;13.788;2023-07-29T12:48:59;98516.53;;;25.37;90.95
19672;BME280;9983;51.114;13.788;2023-07-29T12:54:00;98520.09;;;25.99;85.78
19672;BME280;9983;51.114;13.788;2023-07-29T12:59:01;98514.44;;;26.09;84.35
19672;BME280;9983;51.114;13.788;2023-07-29T13:04:01;98509.81;;;26.23;84.23
19672;BME280;9983;51.114;13.788;2023-07-29T13:09:02;98499.47;;;25.83;83.39
19672;BME280;9983;51.114;13.788;2023-07-29T13:14:03;98498.81;;;26.23;78.75
19672;BME280;9983;51.114;13.788;2023-07-29T13:19:03;98490.03;;;27.13;77.90
19672;BME280;9983;51.114;13.788;2023-07-29T13:24:04;98497.03;;;26.32;77.33
19672;BME280;9983;51.114;13.788;2023-07-29T13:29:04;98491.66;;;27.14;72.52
19672;BME280;9983;51.114;13.788;2023-07-29T13:34:04;98499.69;;;26.37;74.25
19672;BME280;9983;51.114;13.788;2023-07-29T13:39:04;98485.63;;;27.12;69.71
19672;BME280;9983;51.114;13.788;2023-07-29T13:44:04;98483.78;;;29.22;63.40
19672;BME280;9983;51.114;13.788;2023-07-29T13:49:05;98495.41;;;28.71;63.81
19672;BME280;9983;51.114;13.788;2023-07-29T13:54:05;98490.09;;;27.49;63.45
19672;BME280;9983;51.114;13.788;2023-07-29T13:59:05;98497.69;;;29.00;53.08
19672;BME280;9983;51.114;13.788;2023-07-29T14:04:05;98504.91;;;30.01;50.18
19672;BME280;9983;51.114;13.788;2023-07-29T14:09:06;98497.56;;;30.13;48.55
19672;BME280;9983;51.114;13.788;2023-07-29T14:14:07;98499.88;;;31.22;47.84
19672;BME280;9983;51.114;13.788;2023-07-29T14:19:08;98491.38;;;30.89;45.23
19672;BME280;9983;51.114;13.788;2023-07-29T14:24:08;98488.19;;;31.16;44.37
19672;BME280;9983;51.114;13.788;2023-07-29T14:29:08;98480.63;;;32.83;41.33
19672;BME280;9983;51.114;13.788;2023-07-29T14:34:09;98479.81;;;32.37;40.61
19672;BME280;9983;51.114;13.788;2023-07-29T14:39:09;98463.88;;;32.92;40.01
19672;BME280;9983;51.114;13.788;2023-07-29T14:44:09;98461.47;;;33.27;38.01
19672;BME280;9983;51.114;13.788;2023-07-29T14:49:10;98449.78;;;33.85;36.97
19672;BME280;9983;51.114;13.788;2023-07-29T14:54:10;98469.69;;;34.28;36.83
19672;BME280;9983;51.114;13.788;2023-07-29T14:59:10;98459.84;;;33.26;36.24
19672;BME280;9983;51.114;13.788;2023-07-29T15:04:10;98464.22;;;34.31;33.93
19672;BME280;9983;51.114;13.788;2023-07-29T15:09:11;98450.88;;;34.52;34.12
19672;BME280;9983;51.114;13.788;2023-07-29T15:14:11;98462.00;;;34.52;33.60
19672;BME280;9983;51.114;13.788;2023-07-29T15:19:11;98447.44;;;34.43;33.96
19672;BME280;9983;51.114;13.788;2023-07-29T15:24:12;98443.38;;;35.51;32.62
19672;BME280;9983;51.114;13.788;2023-07-29T15:29:12;98460.25;;;36.73;33.32
19672;BME280;9983;51.114;13.788;2023-07-29T15:34:13;98452.50;;;34.53;34.52
19672;BME280;9983;51.114;13.788;2023-07-29T15:39:13;98451.00;;;34.00;35.08
19672;BME280;9983;51.114;13.788;2023-07-29T15:44:13;98456.34;;;34.21;34.74
19672;BME280;9983;51.114;13.788;2023-07-29T15:49:13;98463.00;;;33.76;35.30
19672;BME280;9983;51.114;13.788;2023-07-29T15:54:14;98461.22;;;33.20;35.19
19672;BME280;9983;51.114;13.788;2023-07-29T15:59:14;98454.09;;;33.71;34.78
19672;BME280;9983;51.114;13.788;2023-07-29T16:04:14;98460.28;;;33.40;35.78
19672;BME280;9983;51.114;13.788;2023-07-29T16:09:14;98471.28;;;30.71;40.59
19672;BME280;9983;51.114;13.788;2023-07-29T16:14:15;98475.03;;;29.20;43.95
19672;BME280;9983;51.114;13.788;2023-07-29T16:19:23;98491.03;;;29.58;43.93
19672;BME280;9983;51.114;13.788;2023-07-29T16:24:24;98495.34;;;28.85;45.72
19672;BME280;9983;51.114;13.788;2023-07-29T16:29:24;98507.00;;;28.82;46.81
19672;BME280;9983;51.114;13.788;2023-07-29T16:34:25;98519.16;;;27.91;49.22
19672;BME280;9983;51.114;13.788;2023-07-29T16:39:25;98633.22;;;25.53;58.08
19672;BME280;9983;51.114;13.788;2023-07-29T16:44:25;98664.47;;;25.05;59.32
19672;BME280;9983;51.114;13.788;2023-07-29T16:49:25;98677.97;;;22.52;100.00
19672;BME280;9983;51.114;13.788;2023-07-29T16:54:26;98683.22;;;22.79;100.00
19672;BME280;9983;51.114;13.788;2023-07-29T16:59:26;98674.16;;;23.34;100.00
19672;BME280;9983;51.114;13.788;2023-07-29T17:04:27;98669.72;;;23.43;100.00
19672;BME280;9983;51.114;13.788;2023-07-29T17:09:27;98670.38;;;23.05;100.00
19672;BME280;9983;51.114;13.788;2023-07-29T17:14:27;98683.44;;;22.32;100.00
19672;BME280;9983;51.114;13.788;2023-07-29T17:19:28;98683.94;;;22.19;100.00
19672;BME280;9983;51.114;13.788;2023-07-29T17:24:28;98652.16;;;21.82;100.00
19672;BME280;9983;51.114;13.788;2023-07-29T17:29:28;98635.91;;;22.53;100.00
19672;BME280;9983;51.114;13.788;2023-07-29T17:34:29;98629.91;;;22.36;100.00
19672;BME280;9983;51.114;13.788;2023-07-29T17:39:29;98647.41;;;22.40;100.00
19672;BME280;9983;51.114;13.788;2023-07-29T17:44:29;98652.63;;;21.59;100.00
19672;BME280;9983;51.114;13.788;2023-07-29T17:49:30;98649.94;;;21.74;100.00
19672;BME280;9983;51.114;13.788;2023-07-29T17:54:30;98651.63;;;21.95;100.00
19672;BME280;9983;51.114;13.788;2023-07-29T17:59:31;98637.13;;;21.85;100.00
19672;BME280;9983;51.114;13.788;2023-07-29T18:04:32;98665.34;;;22.11;100.00
19672;BME280;9983;51.114;13.788;2023-07-29T18:09:32;98675.81;;;23.20;100.00
19672;BME280;9983;51.114;13.788;2023-07-29T18:14:32;98675.25;;;22.42;100.00
19672;BME280;9983;51.114;13.788;2023-07-29T18:19:33;98660.91;;;21.94;100.00
19672;BME280;9983;51.114;13.788;2023-07-29T18:24:33;98661.06;;;22.55;100.00
19672;BME280;9983;51.114;13.788;2023-07-29T18:29:33;98670.38;;;22.59;100.00
19672;BME280;9983;51.114;13.788;2023-07-29T18:34:34;98660.44;;;22.18;100.00
19672;BME280;9983;51.114;13.788;2023-07-29T18:39:34;98679.63;;;22.33;100.00
19672;BME280;9983;51.114;13.788;2023-07-29T18:44:34;98671.56;;;21.91;100.00
19672;BME280;9983;51.114;13.788;2023-07-29T18:49:35;98662.28;;;21.92;100.00
19672;BME280;9983;51.114;13.788;2023-07-29T18:54:35;98669.63;;;21.29;100.00
19672;BME280;9983;51.114;13.788;2023-07-29T18:59:37;98665.13;;;22.17;100.00
19672;BME280;9983;51.114;13.788;2023-07-29T19:04:38;98671.34;;;21.98;100.00
19672;BME280;9983;51.114;13.788;2023-07-29T19:09:41;98673.63;;;21.64;100.00
19672;BME280;9983;51.114;13.788;2023-07-29T19:14:42;98669.75;;;21.54;100.00
19672;BME280;9983;51.114;13.788;2023-07-29T19:19:42;98664.47;;;21.33;100.00
19672;BME280;9983;51.114;13.788;2023-07-29T19:24:42;98660.28;;;21.67;100.00
19672;BME280;9983;51.114;13.788;2023-07-29T19:29:43;98672.19;;;22.08;100.00
19672;BME280;9983;51.114;13.788;2023-07-29T19:34:44;98676.59;;;22.29;100.00
19672;BME280;9983;51.114;13.788;2023-07-29T19:39:47;98682.09;;;21.67;100.00
19672;BME280;9983;51.114;13.788;2023-07-29T19:44:48;98685.91;;;21.66;100.00
19672;BME280;9983;51.114;13.788;2023-07-29T19:49:48;98678.34;;;21.88;100.00
19672;BME280;9983;51.114;13.788;2023-07-29T19:54:48;98692.41;;;21.60;100.00
19672;BME280;9983;51.114;13.788;2023-07-29T19:59:49;98692.25;;;21.30;100.00
19672;BME280;9983;51.114;13.788;2023-07-29T20:04:50;98688.34;;;22.30;100.00
19672;BME280;9983;51.114;13.788;2023-07-29T20:09:50;98699.25;;;20.83;100.00
19672;BME280;9983;51.114;13.788;2023-07-29T20:14:51;98704.56;;;21.00;100.00
19672;BME280;9983;51.114;13.788;2023-07-29T20:19:51;98714.38;;;20.42;100.00
19672;BME280;9983;51.114;13.788;2023-07-29T20:24:51;98724.44;;;21.33;100.00
19672;BME280;9983;51.114;13.788;2023-07-29T20:29:52;98723.06;;;20.39;100.00
19672;BME280;9983;51.114;13.788;2023-07-29T20:34:52;98727.44;;;20.40;100.00
19672;BME280;9983;51.114;13.788;2023-07-29T20:39:52;98725.09;;;20.49;100.00
19672;BME280;9983;51.114;13.788;2023-07-29T20:44:53;98729.69;;;20.49;100.00
19672;BME280;9983;51.114;13.788;2023-07-29T20:49:53;98731.97;;;20.57;100.00
19672;BME280;9983;51.114;13.788;2023-07-29T20:54:53;98735.13;;;20.00;100.00
19672;BME280;9983;51.114;13.788;2023-07-29T20:59:54;98743.25;;;20.43;100.00
19672;BME280;9983;51.114;13.788;2023-07-29T21:04:54;98739.59;;;20.11;100.00
19672;BME280;9983;51.114;13.788;2023-07-29T21:09:54;98740.44;;;19.51;100.00
19672;BME280;9983;51.114;13.788;2023-07-29T21:14:54;98739.94;;;19.54;100.00
19672;BME280;9983;51.114;13.788;2023-07-29T21:19:55;98738.47;;;19.30;100.00
19672;BME280;9983;51.114;13.788;2023-07-29T21:24:55;98737.63;;;19.85;100.00
19672;BME280;9983;51.114;13.788;2023-07-29T21:29:55;98746.41;;;19.48;100.00
19672;BME280;9983;51.114;13.788;2023-07-29T21:34:55;98740.97;;;19.92;100.00
19672;BME280;9983;51.114;13.788;2023-07-29T21:39:56;98744.13;;;19.84;100.00
19672;BME280;9983;51.114;13.788;2023-07-29T21:44:58;98749.13;;;19.70;100.00
19672;BME280;9983;51.114;13.788;2023-07-29T21:49:58;98740.09;;;19.86;100.00
19672;BME280;9983;51.114;13.788;2023-07-29T21:54:58;98740.00;;;19.98;100.00
19672;BME280;9983;51.114;13.788;2023-07-29T21:59:59;98744.09;;;19.79;100.00
19672;BME280;9983;51.114;13.788;2023-07-29T22:04:59;98733.41;;;19.72;100.00
19672;BME280;9983;51.114;13.788;2023-07-29T22:09:59;98723.03;;;19.91;100.00
19672;BME280;9983;51.114;13.788;2023-07-29T22:15:00;98731.72;;;19.32;100.00
19672;BME280;9983;51.114;13.788;2023-07-29T22:20:01;98745.72;;;19.41;100.00
19672;BME280;9983;51.114;13.788;2023-07-29T22:25:03;98752.63;;;19.65;100.00
19672;BME280;9983;51.114;13.788;2023-07-29T22:30:03;98754.78;;;20.07;100.00
19672;BME280;9983;51.114;13.788;2023-07-29T22:35:04;98757.06;;;19.72;100.00
19672;BME280;9983;51.114;13.788;2023-07-29T22:40:04;98760.88;;;19.04;100.00
19672;BME280;9983;51.114;13.788;2023-07-29T22:45:05;98755.44;;;19.04;100.00
19672;BME280;9983;51.114;13.788;2023-07-29T22:50:06;98755.44;;;19.37;100.00
19672;BME280;9983;51.114;13.788;2023-07-29T22:55:06;98758.50;;;19.57;100.00
19672;BME280;9983;51.114;13.788;2023-07-29T23:00:07;98755.44;;;19.04;100.00
19672;BME280;9983;51.114;13.788;2023-07-29T23:05:08;98760.19;;;19.63;100.00
19672;BME280;9983;51.114;13.788;2023-07-29T23:10:08;98763.53;;;19.15;100.00
19672;BME280;9983;51.114;13.788;2023-07-29T23:15:09;98774.84;;;18.79;100.00
19672;BME280;9983;51.114;13.788;2023-07-29T23:20:09;98779.41;;;19.40;100.00
19672;BME280;9983;51.114;13.788;2023-07-29T23:25:10;98778.00;;;19.21;100.00
19672;BME280;9983;51.114;13.788;2023-07-29T23:30:10;98782.28;;;19.33;100.00
19672;BME280;9983;51.114;13.788;2023-07-29T23:35:11;98781.78;;;19.37;100.00
19672;BME280;9983;51.114;13.788;2023-07-29T23:40:12;98766.66;;;19.41;100.00
19672;BME280;9983;51.114;13.788;2023-07-29T23:45:12;98769.09;;;19.09;100.00
19672;BME280;9983;51.114;13.788;2023-07-29T23:50:12;98759.81;;;19.38;100.00
19672;BME280;9983;51.114;13.788;2023-07-29T23:55:13;98768.13;;;18.98;100.00
